sensor_id;sensor_type;location;lat;lon;timestamp;P1;durP1;ratioP1;P2;durP2;ratioP2
11522;SDS011;40093;43.224;27.910;2023-02-26T00:00:07;16.20;;;9.23;;
11522;SDS011;40093;43.224;27.910;2023-02-26T00:02:39;14.67;;;8.90;;
11522;SDS011;40093;43.224;27.910;2023-02-26T00:05:08;20.03;;;9.13;;
11522;SDS011;40093;43.224;27.910;2023-02-26T00:07:35;18.50;;;10.10;;
11522;SDS011;40093;43.224;27.910;2023-02-26T00:10:02;17.97;;;9.57;;
11522;SDS011;40093;43.224;27.910;2023-02-26T00:12:30;17.73;;;9.07;;
11522;SDS011;40093;43.224;27.910;2023-02-26T00:14:57;22.27;;;9.83;;
11522;SDS011;40093;43.224;27.910;2023-02-26T00:17:28;16.17;;;9.13;;
11522;SDS011;40093;43.224;27.910;2023-02-26T00:19:59;18.17;;;9.83;;
11522;SDS011;40093;43.224;27.910;2023-02-26T00:22:29;17.40;;;8.97;;
11522;SDS011;40093;43.224;27.910;2023-02-26T00:24:57;18.70;;;10.10;;
11522;SDS011;40093;43.224;27.910;2023-02-26T00:27:24;22.67;;;9.70;;
11522;SDS011;40093;43.224;27.910;2023-02-26T00:29:51;18.23;;;9.37;;
11522;SDS011;40093;43.224;27.910;2023-02-26T00:32:18;17.87;;;9.03;;
11522;SDS011;40093;43.224;27.910;2023-02-26T00:34:46;20.87;;;9.83;;
11522;SDS011;40093;43.224;27.910;2023-02-26T00:37:16;18.73;;;9.20;;
11522;SDS011;40093;43.224;27.910;2023-02-26T00:39:57;19.60;;;9.37;;
11522;SDS011;40093;43.224;27.910;2023-02-26T00:42:33;19.80;;;9.33;;
11522;SDS011;40093;43.224;27.910;2023-02-26T00:45:01;16.77;;;9.30;;
11522;SDS011;40093;43.224;27.910;2023-02-26T00:47:30;18.83;;;9.93;;
11522;SDS011;40093;43.224;27.910;2023-02-26T00:50:07;16.97;;;9.90;;
11522;SDS011;40093;43.224;27.910;2023-02-26T00:52:41;23.70;;;12.73;;
11522;SDS011;40093;43.224;27.910;2023-02-26T00:55:17;22.27;;;12.07;;
11522;SDS011;40093;43.224;27.910;2023-02-26T00:57:44;18.93;;;10.73;;
11522;SDS011;40093;43.224;27.910;2023-02-26T01:00:11;23.13;;;9.70;;
11522;SDS011;40093;43.224;27.910;2023-02-26T01:02:39;18.67;;;8.93;;
11522;SDS011;40093;43.224;27.910;2023-02-26T01:05:08;16.37;;;9.87;;
11522;SDS011;40093;43.224;27.910;2023-02-26T01:07:37;19.60;;;9.20;;
11522;SDS011;40093;43.224;27.910;2023-02-26T01:10:10;18.47;;;9.53;;
11522;SDS011;40093;43.224;27.910;2023-02-26T01:12:40;21.97;;;10.33;;
11522;SDS011;40093;43.224;27.910;2023-02-26T01:15:08;18.67;;;9.13;;
11522;SDS011;40093;43.224;27.910;2023-02-26T01:17:38;18.30;;;10.33;;
11522;SDS011;40093;43.224;27.910;2023-02-26T01:20:11;17.97;;;9.23;;
11522;SDS011;40093;43.224;27.910;2023-02-26T01:22:43;21.90;;;9.63;;
11522;SDS011;40093;43.224;27.910;2023-02-26T01:25:17;19.97;;;9.47;;
11522;SDS011;40093;43.224;27.910;2023-02-26T01:27:50;19.70;;;9.80;;
11522;SDS011;40093;43.224;27.910;2023-02-26T01:30:17;21.80;;;9.40;;
11522;SDS011;40093;43.224;27.910;2023-02-26T01:32:47;18.43;;;8.97;;
11522;SDS011;40093;43.224;27.910;2023-02-26T01:35:23;19.43;;;9.97;;
11522;SDS011;40093;43.224;27.910;2023-02-26T01:38:00;19.60;;;9.37;;
11522;SDS011;40093;43.224;27.910;2023-02-26T01:40:34;18.90;;;9.67;;
11522;SDS011;40093;43.224;27.910;2023-02-26T01:43:14;22.10;;;9.37;;
11522;SDS011;40093;43.224;27.910;2023-02-26T01:45:53;19.40;;;8.97;;
11522;SDS011;40093;43.224;27.910;2023-02-26T01:48:27;16.53;;;8.77;;
11522;SDS011;40093;43.224;27.910;2023-02-26T01:51:03;22.47;;;9.93;;
11522;SDS011;40093;43.224;27.910;2023-02-26T01:53:31;22.23;;;9.40;;
11522;SDS011;40093;43.224;27.910;2023-02-26T01:55:59;21.43;;;8.90;;
11522;SDS011;40093;43.224;27.910;2023-02-26T01:58:33;21.63;;;8.90;;
11522;SDS011;40093;43.224;27.910;2023-02-26T02:01:02;18.13;;;8.70;;
11522;SDS011;40093;43.224;27.910;2023-02-26T02:03:31;19.40;;;8.70;;
11522;SDS011;40093;43.224;27.910;2023-02-26T02:06:03;21.00;;;9.07;;
11522;SDS011;40093;43.224;27.910;2023-02-26T02:08:33;22.13;;;8.67;;
11522;SDS011;40093;43.224;27.910;2023-02-26T02:11:00;19.23;;;8.90;;
11522;SDS011;40093;43.224;27.910;2023-02-26T02:13:34;17.20;;;8.90;;
11522;SDS011;40093;43.224;27.910;2023-02-26T02:16:19;21.10;;;8.77;;
11522;SDS011;40093;43.224;27.910;2023-02-26T02:18:55;19.83;;;8.43;;
11522;SDS011;40093;43.224;27.910;2023-02-26T02:24:21;21.50;;;8.80;;
11522;SDS011;40093;43.224;27.910;2023-02-26T02:27:01;19.97;;;8.50;;
11522;SDS011;40093;43.224;27.910;2023-02-26T02:29:48;23.23;;;9.00;;
11522;SDS011;40093;43.224;27.910;2023-02-26T02:32:22;19.27;;;8.10;;
11522;SDS011;40093;43.224;27.910;2023-02-26T02:34:57;15.43;;;8.60;;
11522;SDS011;40093;43.224;27.910;2023-02-26T02:37:33;18.13;;;8.17;;
11522;SDS011;40093;43.224;27.910;2023-02-26T02:40:06;17.63;;;8.43;;
11522;SDS011;40093;43.224;27.910;2023-02-26T02:42:37;19.77;;;8.50;;
11522;SDS011;40093;43.224;27.910;2023-02-26T02:45:10;22.20;;;8.43;;
11522;SDS011;40093;43.224;27.910;2023-02-26T02:47:45;18.80;;;7.73;;
11522;SDS011;40093;43.224;27.910;2023-02-26T02:50:17;20.93;;;8.13;;
11522;SDS011;40093;43.224;27.910;2023-02-26T02:52:49;19.23;;;11.93;;
11522;SDS011;40093;43.224;27.910;2023-02-26T02:55:23;19.10;;;9.00;;
11522;SDS011;40093;43.224;27.910;2023-02-26T02:57:54;19.60;;;8.60;;
11522;SDS011;40093;43.224;27.910;2023-02-26T03:00:27;17.10;;;8.07;;
11522;SDS011;40093;43.224;27.910;2023-02-26T03:02:58;16.80;;;8.07;;
11522;SDS011;40093;43.224;27.910;2023-02-26T03:05:31;21.50;;;8.60;;
11522;SDS011;40093;43.224;27.910;2023-02-26T03:07:59;21.60;;;8.33;;
11522;SDS011;40093;43.224;27.910;2023-02-26T03:10:31;19.53;;;8.27;;
11522;SDS011;40093;43.224;27.910;2023-02-26T03:12:59;20.63;;;8.40;;
11522;SDS011;40093;43.224;27.910;2023-02-26T03:15:29;21.07;;;7.97;;
11522;SDS011;40093;43.224;27.910;2023-02-26T03:18:05;16.10;;;7.80;;
11522;SDS011;40093;43.224;27.910;2023-02-26T03:20:45;18.60;;;8.07;;
11522;SDS011;40093;43.224;27.910;2023-02-26T03:23:21;15.03;;;7.87;;
11522;SDS011;40093;43.224;27.910;2023-02-26T03:25:55;16.53;;;7.97;;
11522;SDS011;40093;43.224;27.910;2023-02-26T03:28:29;20.63;;;8.20;;
11522;SDS011;40093;43.224;27.910;2023-02-26T03:31:03;15.90;;;8.07;;
11522;SDS011;40093;43.224;27.910;2023-02-26T03:33:37;20.63;;;8.10;;
11522;SDS011;40093;43.224;27.910;2023-02-26T03:36:10;19.60;;;7.57;;
11522;SDS011;40093;43.224;27.910;2023-02-26T03:38:46;19.73;;;7.77;;
11522;SDS011;40093;43.224;27.910;2023-02-26T03:41:16;18.70;;;8.33;;
11522;SDS011;40093;43.224;27.910;2023-02-26T03:43:50;16.73;;;8.07;;
11522;SDS011;40093;43.224;27.910;2023-02-26T03:46:22;19.70;;;8.40;;
11522;SDS011;40093;43.224;27.910;2023-02-26T03:48:54;20.40;;;8.23;;
11522;SDS011;40093;43.224;27.910;2023-02-26T03:51:26;18.03;;;8.03;;
11522;SDS011;40093;43.224;27.910;2023-02-26T03:53:55;19.03;;;8.20;;
11522;SDS011;40093;43.224;27.910;2023-02-26T03:56:28;16.60;;;7.90;;
11522;SDS011;40093;43.224;27.910;2023-02-26T03:58:59;20.90;;;8.20;;
11522;SDS011;40093;43.224;27.910;2023-02-26T04:01:29;16.33;;;8.23;;
11522;SDS011;40093;43.224;27.910;2023-02-26T04:04:04;20.23;;;7.47;;
11522;SDS011;40093;43.224;27.910;2023-02-26T04:06:35;21.43;;;8.07;;
11522;SDS011;40093;43.224;27.910;2023-02-26T04:09:02;21.47;;;8.23;;
11522;SDS011;40093;43.224;27.910;2023-02-26T04:11:30;17.93;;;7.37;;
11522;SDS011;40093;43.224;27.910;2023-02-26T04:13:58;16.37;;;7.90;;
11522;SDS011;40093;43.224;27.910;2023-02-26T04:16:25;19.07;;;7.63;;
11522;SDS011;40093;43.224;27.910;2023-02-26T04:18:52;16.47;;;7.20;;
11522;SDS011;40093;43.224;27.910;2023-02-26T04:21:20;21.70;;;8.60;;
11522;SDS011;40093;43.224;27.910;2023-02-26T04:23:49;21.87;;;8.03;;
11522;SDS011;40093;43.224;27.910;2023-02-26T04:26:16;21.27;;;8.00;;
11522;SDS011;40093;43.224;27.910;2023-02-26T04:28:43;14.90;;;7.07;;
11522;SDS011;40093;43.224;27.910;2023-02-26T04:31:10;17.50;;;7.20;;
11522;SDS011;40093;43.224;27.910;2023-02-26T04:33:37;21.13;;;8.00;;
11522;SDS011;40093;43.224;27.910;2023-02-26T04:36:04;20.17;;;7.60;;
11522;SDS011;40093;43.224;27.910;2023-02-26T04:38:33;19.77;;;7.50;;
11522;SDS011;40093;43.224;27.910;2023-02-26T04:41:00;21.77;;;7.47;;
11522;SDS011;40093;43.224;27.910;2023-02-26T04:43:26;19.80;;;7.83;;
11522;SDS011;40093;43.224;27.910;2023-02-26T04:45:53;21.47;;;7.33;;
11522;SDS011;40093;43.224;27.910;2023-02-26T04:48:20;17.13;;;8.30;;
11522;SDS011;40093;43.224;27.910;2023-02-26T04:50:47;19.10;;;7.40;;
11522;SDS011;40093;43.224;27.910;2023-02-26T04:53:14;18.57;;;8.53;;
11522;SDS011;40093;43.224;27.910;2023-02-26T04:55:42;23.77;;;11.00;;
11522;SDS011;40093;43.224;27.910;2023-02-26T04:58:10;21.33;;;8.00;;
11522;SDS011;40093;43.224;27.910;2023-02-26T05:00:37;15.87;;;7.30;;
11522;SDS011;40093;43.224;27.910;2023-02-26T05:03:04;19.47;;;7.37;;
11522;SDS011;40093;43.224;27.910;2023-02-26T05:05:32;17.70;;;7.53;;
11522;SDS011;40093;43.224;27.910;2023-02-26T05:08:01;17.70;;;7.50;;
11522;SDS011;40093;43.224;27.910;2023-02-26T05:10:28;18.63;;;7.40;;
11522;SDS011;40093;43.224;27.910;2023-02-26T05:12:56;19.77;;;7.93;;
11522;SDS011;40093;43.224;27.910;2023-02-26T05:15:23;18.47;;;7.53;;
11522;SDS011;40093;43.224;27.910;2023-02-26T05:17:50;18.67;;;7.97;;
11522;SDS011;40093;43.224;27.910;2023-02-26T05:20:17;18.07;;;7.30;;
11522;SDS011;40093;43.224;27.910;2023-02-26T05:22:44;19.60;;;7.13;;
11522;SDS011;40093;43.224;27.910;2023-02-26T05:25:11;17.13;;;7.33;;
11522;SDS011;40093;43.224;27.910;2023-02-26T05:27:38;15.53;;;7.40;;
11522;SDS011;40093;43.224;27.910;2023-02-26T05:30:10;16.97;;;7.33;;
11522;SDS011;40093;43.224;27.910;2023-02-26T05:32:39;24.17;;;7.93;;
11522;SDS011;40093;43.224;27.910;2023-02-26T05:35:06;16.87;;;7.77;;
11522;SDS011;40093;43.224;27.910;2023-02-26T05:37:34;16.73;;;7.57;;
11522;SDS011;40093;43.224;27.910;2023-02-26T05:40:01;18.50;;;8.73;;
11522;SDS011;40093;43.224;27.910;2023-02-26T05:42:28;15.73;;;7.27;;
11522;SDS011;40093;43.224;27.910;2023-02-26T05:44:55;19.27;;;7.43;;
11522;SDS011;40093;43.224;27.910;2023-02-26T05:47:24;15.77;;;7.50;;
11522;SDS011;40093;43.224;27.910;2023-02-26T05:49:52;16.43;;;7.93;;
11522;SDS011;40093;43.224;27.910;2023-02-26T05:52:19;22.23;;;7.70;;
11522;SDS011;40093;43.224;27.910;2023-02-26T05:54:46;16.03;;;7.87;;
11522;SDS011;40093;43.224;27.910;2023-02-26T05:57:14;23.40;;;8.00;;
11522;SDS011;40093;43.224;27.910;2023-02-26T05:59:41;18.90;;;8.17;;
11522;SDS011;40093;43.224;27.910;2023-02-26T06:02:07;13.43;;;7.70;;
11522;SDS011;40093;43.224;27.910;2023-02-26T06:04:36;18.73;;;7.93;;
11522;SDS011;40093;43.224;27.910;2023-02-26T06:07:03;16.57;;;7.87;;
11522;SDS011;40093;43.224;27.910;2023-02-26T06:09:29;16.07;;;7.30;;
11522;SDS011;40093;43.224;27.910;2023-02-26T06:11:56;21.93;;;7.40;;
11522;SDS011;40093;43.224;27.910;2023-02-26T06:14:23;18.63;;;7.20;;
11522;SDS011;40093;43.224;27.910;2023-02-26T06:16:50;19.77;;;7.53;;
11522;SDS011;40093;43.224;27.910;2023-02-26T06:19:17;20.27;;;9.30;;
11522;SDS011;40093;43.224;27.910;2023-02-26T06:21:47;20.60;;;8.70;;
11522;SDS011;40093;43.224;27.910;2023-02-26T06:24:13;22.03;;;9.10;;
11522;SDS011;40093;43.224;27.910;2023-02-26T06:26:41;21.07;;;7.93;;
11522;SDS011;40093;43.224;27.910;2023-02-26T06:29:07;15.87;;;6.90;;
11522;SDS011;40093;43.224;27.910;2023-02-26T06:31:34;17.13;;;7.10;;
11522;SDS011;40093;43.224;27.910;2023-02-26T06:34:01;16.20;;;7.33;;
11522;SDS011;40093;43.224;27.910;2023-02-26T06:36:29;15.40;;;7.57;;
11522;SDS011;40093;43.224;27.910;2023-02-26T06:38:57;18.27;;;7.47;;
11522;SDS011;40093;43.224;27.910;2023-02-26T06:41:24;16.87;;;7.70;;
11522;SDS011;40093;43.224;27.910;2023-02-26T06:43:51;18.73;;;7.33;;
11522;SDS011;40093;43.224;27.910;2023-02-26T06:46:17;20.03;;;7.33;;
11522;SDS011;40093;43.224;27.910;2023-02-26T06:48:44;18.20;;;7.20;;
11522;SDS011;40093;43.224;27.910;2023-02-26T06:51:13;19.77;;;7.10;;
11522;SDS011;40093;43.224;27.910;2023-02-26T06:53:40;15.00;;;6.40;;
11522;SDS011;40093;43.224;27.910;2023-02-26T06:56:09;15.70;;;7.87;;
11522;SDS011;40093;43.224;27.910;2023-02-26T06:58:35;16.57;;;7.10;;
11522;SDS011;40093;43.224;27.910;2023-02-26T07:01:02;18.03;;;7.43;;
11522;SDS011;40093;43.224;27.910;2023-02-26T07:03:30;13.80;;;7.50;;
11522;SDS011;40093;43.224;27.910;2023-02-26T07:05:57;19.57;;;7.00;;
11522;SDS011;40093;43.224;27.910;2023-02-26T07:08:24;21.20;;;7.97;;
11522;SDS011;40093;43.224;27.910;2023-02-26T07:10:51;20.30;;;7.47;;
11522;SDS011;40093;43.224;27.910;2023-02-26T07:13:19;19.10;;;7.57;;
11522;SDS011;40093;43.224;27.910;2023-02-26T07:15:46;19.70;;;8.07;;
11522;SDS011;40093;43.224;27.910;2023-02-26T07:18:14;17.40;;;7.60;;
11522;SDS011;40093;43.224;27.910;2023-02-26T07:20:41;19.37;;;8.77;;
11522;SDS011;40093;43.224;27.910;2023-02-26T07:23:09;17.97;;;7.53;;
11522;SDS011;40093;43.224;27.910;2023-02-26T07:25:37;23.60;;;8.17;;
11522;SDS011;40093;43.224;27.910;2023-02-26T07:28:04;16.37;;;8.23;;
11522;SDS011;40093;43.224;27.910;2023-02-26T07:30:33;20.37;;;8.17;;
11522;SDS011;40093;43.224;27.910;2023-02-26T07:33:00;20.00;;;7.33;;
11522;SDS011;40093;43.224;27.910;2023-02-26T07:35:26;16.53;;;7.10;;
11522;SDS011;40093;43.224;27.910;2023-02-26T07:37:54;16.40;;;7.37;;
11522;SDS011;40093;43.224;27.910;2023-02-26T07:40:20;22.87;;;7.50;;
11522;SDS011;40093;43.224;27.910;2023-02-26T07:42:47;16.53;;;7.77;;
11522;SDS011;40093;43.224;27.910;2023-02-26T07:45:14;18.17;;;8.00;;
11522;SDS011;40093;43.224;27.910;2023-02-26T07:47:44;15.80;;;7.23;;
11522;SDS011;40093;43.224;27.910;2023-02-26T07:50:13;17.43;;;7.80;;
11522;SDS011;40093;43.224;27.910;2023-02-26T07:52:40;16.87;;;7.57;;
11522;SDS011;40093;43.224;27.910;2023-02-26T07:55:08;18.47;;;7.80;;
11522;SDS011;40093;43.224;27.910;2023-02-26T07:57:35;18.93;;;8.30;;
11522;SDS011;40093;43.224;27.910;2023-02-26T08:00:03;16.83;;;7.87;;
11522;SDS011;40093;43.224;27.910;2023-02-26T08:02:31;14.50;;;7.80;;
11522;SDS011;40093;43.224;27.910;2023-02-26T08:04:59;19.00;;;8.10;;
11522;SDS011;40093;43.224;27.910;2023-02-26T08:07:26;17.63;;;9.90;;
11522;SDS011;40093;43.224;27.910;2023-02-26T08:09:54;21.63;;;7.77;;
11522;SDS011;40093;43.224;27.910;2023-02-26T08:12:20;18.47;;;8.57;;
11522;SDS011;40093;43.224;27.910;2023-02-26T08:14:49;18.00;;;8.50;;
11522;SDS011;40093;43.224;27.910;2023-02-26T08:17:15;15.47;;;8.37;;
11522;SDS011;40093;43.224;27.910;2023-02-26T08:19:42;15.67;;;8.17;;
11522;SDS011;40093;43.224;27.910;2023-02-26T08:22:10;18.27;;;8.57;;
11522;SDS011;40093;43.224;27.910;2023-02-26T08:24:38;18.27;;;8.13;;
11522;SDS011;40093;43.224;27.910;2023-02-26T08:27:05;17.33;;;8.80;;
11522;SDS011;40093;43.224;27.910;2023-02-26T08:29:32;20.73;;;7.90;;
11522;SDS011;40093;43.224;27.910;2023-02-26T08:31:59;15.97;;;7.00;;
11522;SDS011;40093;43.224;27.910;2023-02-26T08:34:25;16.03;;;6.93;;
11522;SDS011;40093;43.224;27.910;2023-02-26T08:36:52;17.87;;;7.90;;
11522;SDS011;40093;43.224;27.910;2023-02-26T08:39:20;18.80;;;9.27;;
11522;SDS011;40093;43.224;27.910;2023-02-26T08:41:47;19.50;;;7.90;;
11522;SDS011;40093;43.224;27.910;2023-02-26T08:44:14;18.13;;;7.57;;
11522;SDS011;40093;43.224;27.910;2023-02-26T08:46:41;16.83;;;7.80;;
11522;SDS011;40093;43.224;27.910;2023-02-26T08:49:08;14.57;;;6.50;;
11522;SDS011;40093;43.224;27.910;2023-02-26T08:51:35;20.03;;;8.37;;
11522;SDS011;40093;43.224;27.910;2023-02-26T08:54:02;19.80;;;7.63;;
11522;SDS011;40093;43.224;27.910;2023-02-26T08:56:30;18.10;;;7.20;;
11522;SDS011;40093;43.224;27.910;2023-02-26T08:58:57;22.07;;;7.77;;
11522;SDS011;40093;43.224;27.910;2023-02-26T09:01:24;16.83;;;7.87;;
11522;SDS011;40093;43.224;27.910;2023-02-26T09:03:51;18.87;;;7.93;;
11522;SDS011;40093;43.224;27.910;2023-02-26T09:06:18;18.20;;;7.10;;
11522;SDS011;40093;43.224;27.910;2023-02-26T09:08:45;19.07;;;6.47;;
11522;SDS011;40093;43.224;27.910;2023-02-26T09:11:13;17.53;;;7.63;;
11522;SDS011;40093;43.224;27.910;2023-02-26T09:13:41;11.63;;;6.93;;
11522;SDS011;40093;43.224;27.910;2023-02-26T09:16:08;21.93;;;6.60;;
11522;SDS011;40093;43.224;27.910;2023-02-26T09:18:36;17.57;;;6.63;;
11522;SDS011;40093;43.224;27.910;2023-02-26T09:21:03;17.87;;;6.80;;
11522;SDS011;40093;43.224;27.910;2023-02-26T09:23:30;22.13;;;7.50;;
11522;SDS011;40093;43.224;27.910;2023-02-26T09:25:57;16.80;;;7.03;;
11522;SDS011;40093;43.224;27.910;2023-02-26T09:28:24;21.03;;;7.17;;
11522;SDS011;40093;43.224;27.910;2023-02-26T09:30:53;23.43;;;7.93;;
11522;SDS011;40093;43.224;27.910;2023-02-26T09:33:21;21.23;;;8.77;;
11522;SDS011;40093;43.224;27.910;2023-02-26T09:35:48;18.43;;;7.13;;
11522;SDS011;40093;43.224;27.910;2023-02-26T09:38:16;15.97;;;7.00;;
11522;SDS011;40093;43.224;27.910;2023-02-26T09:40:44;15.33;;;6.13;;
11522;SDS011;40093;43.224;27.910;2023-02-26T09:43:26;20.27;;;6.93;;
11522;SDS011;40093;43.224;27.910;2023-02-26T09:46:23;15.20;;;6.80;;
11522;SDS011;40093;43.224;27.910;2023-02-26T09:49:01;16.33;;;6.70;;
11522;SDS011;40093;43.224;27.910;2023-02-26T09:51:33;14.60;;;6.20;;
11522;SDS011;40093;43.224;27.910;2023-02-26T09:54:01;23.43;;;7.10;;
11522;SDS011;40093;43.224;27.910;2023-02-26T09:56:34;14.43;;;6.50;;
11522;SDS011;40093;43.224;27.910;2023-02-26T09:59:02;17.27;;;6.77;;
11522;SDS011;40093;43.224;27.910;2023-02-26T10:01:32;19.07;;;6.10;;
11522;SDS011;40093;43.224;27.910;2023-02-26T10:04:04;22.00;;;6.73;;
11522;SDS011;40093;43.224;27.910;2023-02-26T10:06:37;16.90;;;5.93;;
11522;SDS011;40093;43.224;27.910;2023-02-26T10:09:21;13.37;;;5.73;;
11522;SDS011;40093;43.224;27.910;2023-02-26T10:12:02;14.90;;;6.53;;
11522;SDS011;40093;43.224;27.910;2023-02-26T10:14:35;15.87;;;6.40;;
11522;SDS011;40093;43.224;27.910;2023-02-26T10:17:15;15.93;;;6.10;;
11522;SDS011;40093;43.224;27.910;2023-02-26T10:19:47;15.27;;;6.07;;
11522;SDS011;40093;43.224;27.910;2023-02-26T10:22:23;13.20;;;6.60;;
11522;SDS011;40093;43.224;27.910;2023-02-26T10:24:59;16.03;;;6.40;;
11522;SDS011;40093;43.224;27.910;2023-02-26T10:27:42;15.43;;;7.03;;
11522;SDS011;40093;43.224;27.910;2023-02-26T10:30:20;17.33;;;6.93;;
11522;SDS011;40093;43.224;27.910;2023-02-26T10:32:56;17.40;;;6.70;;
11522;SDS011;40093;43.224;27.910;2023-02-26T10:35:28;16.27;;;6.20;;
11522;SDS011;40093;43.224;27.910;2023-02-26T10:38:02;18.13;;;6.50;;
11522;SDS011;40093;43.224;27.910;2023-02-26T10:40:36;12.80;;;5.87;;
11522;SDS011;40093;43.224;27.910;2023-02-26T10:43:09;16.43;;;6.43;;
11522;SDS011;40093;43.224;27.910;2023-02-26T10:45:50;13.57;;;6.53;;
11522;SDS011;40093;43.224;27.910;2023-02-26T10:48:33;17.93;;;6.90;;
11522;SDS011;40093;43.224;27.910;2023-02-26T10:51:17;15.33;;;6.30;;
11522;SDS011;40093;43.224;27.910;2023-02-26T10:53:46;15.17;;;6.87;;
11522;SDS011;40093;43.224;27.910;2023-02-26T10:56:17;16.90;;;6.60;;
11522;SDS011;40093;43.224;27.910;2023-02-26T10:58:47;13.43;;;6.30;;
11522;SDS011;40093;43.224;27.910;2023-02-26T11:01:20;14.67;;;6.40;;
11522;SDS011;40093;43.224;27.910;2023-02-26T11:03:50;16.87;;;6.20;;
11522;SDS011;40093;43.224;27.910;2023-02-26T11:06:22;12.83;;;5.67;;
11522;SDS011;40093;43.224;27.910;2023-02-26T11:08:53;21.23;;;6.33;;
11522;SDS011;40093;43.224;27.910;2023-02-26T11:14:11;13.20;;;6.10;;
11522;SDS011;40093;43.224;27.910;2023-02-26T11:16:40;15.37;;;6.57;;
11522;SDS011;40093;43.224;27.910;2023-02-26T11:19:13;12.40;;;5.90;;
11522;SDS011;40093;43.224;27.910;2023-02-26T11:21:42;25.60;;;6.33;;
11522;SDS011;40093;43.224;27.910;2023-02-26T11:24:11;16.43;;;6.03;;
11522;SDS011;40093;43.224;27.910;2023-02-26T11:26:44;14.67;;;5.87;;
11522;SDS011;40093;43.224;27.910;2023-02-26T11:29:14;15.03;;;5.87;;
11522;SDS011;40093;43.224;27.910;2023-02-26T11:31:42;15.20;;;5.77;;
11522;SDS011;40093;43.224;27.910;2023-02-26T11:34:14;17.83;;;6.40;;
11522;SDS011;40093;43.224;27.910;2023-02-26T11:36:42;13.67;;;5.47;;
11522;SDS011;40093;43.224;27.910;2023-02-26T11:39:13;15.57;;;6.07;;
11522;SDS011;40093;43.224;27.910;2023-02-26T11:41:43;15.30;;;6.23;;
11522;SDS011;40093;43.224;27.910;2023-02-26T11:44:13;16.57;;;6.17;;
11522;SDS011;40093;43.224;27.910;2023-02-26T11:46:43;15.40;;;7.00;;
11522;SDS011;40093;43.224;27.910;2023-02-26T11:49:15;18.53;;;7.10;;
11522;SDS011;40093;43.224;27.910;2023-02-26T11:51:44;19.80;;;6.73;;
11522;SDS011;40093;43.224;27.910;2023-02-26T11:54:19;22.07;;;7.23;;
11522;SDS011;40093;43.224;27.910;2023-02-26T11:56:48;18.30;;;7.03;;
11522;SDS011;40093;43.224;27.910;2023-02-26T11:59:16;16.90;;;7.20;;
11522;SDS011;40093;43.224;27.910;2023-02-26T12:01:44;19.37;;;7.43;;
11522;SDS011;40093;43.224;27.910;2023-02-26T12:04:13;14.17;;;6.07;;
11522;SDS011;40093;43.224;27.910;2023-02-26T12:06:49;14.03;;;5.73;;
11522;SDS011;40093;43.224;27.910;2023-02-26T12:09:18;21.63;;;8.57;;
11522;SDS011;40093;43.224;27.910;2023-02-26T12:11:52;16.50;;;6.73;;
11522;SDS011;40093;43.224;27.910;2023-02-26T12:14:37;16.83;;;5.93;;
11522;SDS011;40093;43.224;27.910;2023-02-26T12:17:17;15.57;;;6.60;;
11522;SDS011;40093;43.224;27.910;2023-02-26T12:19:59;18.13;;;6.87;;
11522;SDS011;40093;43.224;27.910;2023-02-26T12:22:47;16.97;;;6.37;;
11522;SDS011;40093;43.224;27.910;2023-02-26T12:28:51;19.33;;;5.77;;
11522;SDS011;40093;43.224;27.910;2023-02-26T12:31:36;18.83;;;6.20;;
11522;SDS011;40093;43.224;27.910;2023-02-26T12:34:31;18.23;;;6.70;;
11522;SDS011;40093;43.224;27.910;2023-02-26T12:37:19;15.77;;;6.00;;
11522;SDS011;40093;43.224;27.910;2023-02-26T12:40:00;17.03;;;6.60;;
11522;SDS011;40093;43.224;27.910;2023-02-26T12:42:39;21.10;;;7.47;;
11522;SDS011;40093;43.224;27.910;2023-02-26T12:45:25;24.80;;;7.80;;
11522;SDS011;40093;43.224;27.910;2023-02-26T12:48:07;22.07;;;10.97;;
11522;SDS011;40093;43.224;27.910;2023-02-26T12:50:54;19.60;;;6.47;;
11522;SDS011;40093;43.224;27.910;2023-02-26T12:53:47;24.63;;;7.27;;
11522;SDS011;40093;43.224;27.910;2023-02-26T12:56:37;20.60;;;7.13;;
11522;SDS011;40093;43.224;27.910;2023-02-26T12:59:19;17.00;;;6.17;;
11522;SDS011;40093;43.224;27.910;2023-02-26T13:02:11;16.67;;;7.40;;
11522;SDS011;40093;43.224;27.910;2023-02-26T13:05:06;21.23;;;7.37;;
11522;SDS011;40093;43.224;27.910;2023-02-26T13:07:47;17.83;;;7.00;;
11522;SDS011;40093;43.224;27.910;2023-02-26T13:10:21;21.97;;;8.30;;
11522;SDS011;40093;43.224;27.910;2023-02-26T13:12:57;16.30;;;6.90;;
11522;SDS011;40093;43.224;27.910;2023-02-26T13:15:37;15.10;;;6.53;;
11522;SDS011;40093;43.224;27.910;2023-02-26T13:18:15;19.83;;;6.87;;
11522;SDS011;40093;43.224;27.910;2023-02-26T13:20:53;13.07;;;6.47;;
11522;SDS011;40093;43.224;27.910;2023-02-26T13:23:25;17.67;;;6.60;;
11522;SDS011;40093;43.224;27.910;2023-02-26T13:26:00;16.27;;;6.30;;
11522;SDS011;40093;43.224;27.910;2023-02-26T13:28:34;13.40;;;6.17;;
11522;SDS011;40093;43.224;27.910;2023-02-26T13:31:05;11.20;;;5.83;;
11522;SDS011;40093;43.224;27.910;2023-02-26T13:33:36;16.23;;;6.70;;
11522;SDS011;40093;43.224;27.910;2023-02-26T13:36:06;15.57;;;6.20;;
11522;SDS011;40093;43.224;27.910;2023-02-26T13:38:39;14.97;;;6.50;;
11522;SDS011;40093;43.224;27.910;2023-02-26T13:41:15;14.47;;;6.57;;
11522;SDS011;40093;43.224;27.910;2023-02-26T13:44:01;17.33;;;7.20;;
11522;SDS011;40093;43.224;27.910;2023-02-26T13:46:41;12.30;;;7.00;;
11522;SDS011;40093;43.224;27.910;2023-02-26T13:49:18;14.27;;;6.73;;
11522;SDS011;40093;43.224;27.910;2023-02-26T13:51:49;12.90;;;7.03;;
11522;SDS011;40093;43.224;27.910;2023-02-26T13:54:28;15.57;;;6.90;;
11522;SDS011;40093;43.224;27.910;2023-02-26T13:57:22;13.23;;;6.83;;
11522;SDS011;40093;43.224;27.910;2023-02-26T13:59:53;19.90;;;8.20;;
11522;SDS011;40093;43.224;27.910;2023-02-26T14:02:35;17.63;;;8.70;;
11522;SDS011;40093;43.224;27.910;2023-02-26T14:05:26;14.37;;;8.07;;
11522;SDS011;40093;43.224;27.910;2023-02-26T14:08:07;17.27;;;7.43;;
11522;SDS011;40093;43.224;27.910;2023-02-26T14:10:44;17.10;;;7.90;;
11522;SDS011;40093;43.224;27.910;2023-02-26T14:13:16;16.80;;;8.03;;
11522;SDS011;40093;43.224;27.910;2023-02-26T14:15:48;15.13;;;7.60;;
11522;SDS011;40093;43.224;27.910;2023-02-26T14:18:19;15.67;;;8.93;;
11522;SDS011;40093;43.224;27.910;2023-02-26T14:24:00;13.77;;;8.07;;
11522;SDS011;40093;43.224;27.910;2023-02-26T14:26:30;16.03;;;7.90;;
11522;SDS011;40093;43.224;27.910;2023-02-26T14:29:07;13.67;;;7.63;;
11522;SDS011;40093;43.224;27.910;2023-02-26T14:31:53;15.07;;;8.30;;
11522;SDS011;40093;43.224;27.910;2023-02-26T14:34:27;14.57;;;8.20;;
11522;SDS011;40093;43.224;27.910;2023-02-26T14:36:57;19.30;;;9.17;;
11522;SDS011;40093;43.224;27.910;2023-02-26T14:39:28;21.43;;;10.00;;
11522;SDS011;40093;43.224;27.910;2023-02-26T14:42:01;19.60;;;11.00;;
11522;SDS011;40093;43.224;27.910;2023-02-26T14:44:33;16.00;;;10.50;;
11522;SDS011;40093;43.224;27.910;2023-02-26T14:47:04;13.70;;;8.53;;
11522;SDS011;40093;43.224;27.910;2023-02-26T14:49:32;18.73;;;9.50;;
11522;SDS011;40093;43.224;27.910;2023-02-26T14:52:10;18.47;;;9.07;;
11522;SDS011;40093;43.224;27.910;2023-02-26T14:55:08;19.03;;;8.73;;
11522;SDS011;40093;43.224;27.910;2023-02-26T14:57:56;16.97;;;8.67;;